プーケット の空港の天気 - METARとTAF

プーケット国際空港 ( VTSP / HKT ) - タイ プーケット県
飛行場実況気象(Metar)
観測時間08/18 09:30 ICT (08/18 02:30 UTC)
風向・風速西 6m/s
視程9000m
天気現象
少しの雲 雲底高度 490m
全天の4割程度の雲 雲底高度 3050m
気温30℃
湿度70%
気圧1011hPa
METARVTSP 180230Z 26012KT 230V290 9000 FEW016 SCT100 30/24 Q1011 NOSIG
過去の天気等 Google飛行場航空写真 Wunderground天気予報

過去48時間のMETAR

飛行場予報(TAF)
発表時間: 8/18 06:00 ICT (8/17 23:00 UTC)
予報対象時間: 18日7時 ICT ~ 19日13時 ICT
風向・風速西 7m/s
視程8,000m
全天の4割程度の雲 雲底高度 550m
全天の8割程度の雲 雲底高度 3,050m
18日9時 ICT ~ 18日13時 ICT に一時的に
風向・風速西南西 8m/s 瞬間風速 15m/s
視程3,000m
天気現象雷雨
少しの積乱雲 雲底高度 460m
全天の4割程度の雲 雲底高度 610m
全天の8割程度の雲 雲底高度 3,050m
18日19時 ICT ~ 18日23時 ICT に一時的に
風向・風速西南西 8m/s 瞬間風速 15m/s
視程3,000m
天気現象雷雨
少しの積乱雲 雲底高度 460m
全天の4割程度の雲 雲底高度 610m
全天の8割程度の雲 雲底高度 3,050m
TAF VTSP 172300Z 1800/1906 26013KT 8000 SCT018 BKN100
TEMPO 1802/1806 24015G30KT 3000 TSRA FEW015CB SCT020 BKN100
TEMPO 1812/1816 24015G30KT 3000 TSRA FEW015CB SCT020 BKN100